createdAt,value
2023-05-06T00:01:36.004Z,98794.73
2023-05-06T00:04:03.566Z,98795.77
2023-05-06T00:06:32.677Z,98798.05
2023-05-06T00:09:00.265Z,98800.81
2023-05-06T00:11:27.486Z,98800.65
2023-05-06T00:13:55.416Z,98798.38
2023-05-06T00:16:22.807Z,98795.77
2023-05-06T00:18:50.009Z,98791.94
2023-05-06T00:21:17.482Z,98790.89
2023-05-06T00:23:44.839Z,98796.65
2023-05-06T00:26:12.040Z,98793.86
2023-05-06T00:28:39.419Z,98788.30
2023-05-06T00:31:06.902Z,98781.34
2023-05-06T00:33:34.325Z,98781.86
2023-05-06T00:36:01.760Z,98779.77
2023-05-06T00:38:28.930Z,98776.12
2023-05-06T00:40:57.190Z,98771.08
2023-05-06T00:43:25.747Z,98769.34
2023-05-06T00:45:53.070Z,98774.20
2023-05-06T00:48:21.224Z,98774.20
2023-05-06T00:50:49.368Z,98777.13
2023-05-06T00:53:20.518Z,98773.85
2023-05-06T00:55:49.541Z,98773.31
2023-05-06T00:58:18.903Z,98772.98
2023-05-06T01:00:46.457Z,98774.20
2023-05-06T01:03:13.862Z,98779.78
2023-05-06T01:06:02.930Z,98782.57
2023-05-06T01:08:37.072Z,98789.17
2023-05-06T01:11:24.071Z,98794.55
2023-05-06T01:14:12.446Z,98798.39
2023-05-06T01:16:41.215Z,98792.13
2023-05-06T01:19:28.819Z,98790.91
2023-05-06T01:22:01.104Z,98789.00
2023-05-06T01:24:40.343Z,98783.44
2023-05-06T01:27:09.185Z,98782.39
2023-05-06T01:29:38.599Z,98787.42
2023-05-06T01:32:13.665Z,98787.79
2023-05-06T01:34:49.610Z,98791.42
2023-05-06T01:37:38.776Z,98790.04
2023-05-06T01:40:07.766Z,98792.47
2023-05-06T01:42:36.663Z,98795.78
2023-05-06T01:45:07.057Z,98796.13
2023-05-06T01:47:35.635Z,98802.39
2023-05-06T01:50:04.209Z,98803.59
2023-05-06T01:52:33.466Z,98798.38
2023-05-06T01:55:00.639Z,98799.95
2023-05-06T01:57:28.149Z,98797.86
2023-05-06T01:59:55.832Z,98796.81
2023-05-06T02:02:24.507Z,98798.73
2023-05-06T02:04:52.820Z,98803.25
2023-05-06T02:07:21.089Z,98808.99
2023-05-06T02:09:48.289Z,98813.69
2023-05-06T02:12:15.531Z,98807.60
2023-05-06T02:14:42.994Z,98800.81
2023-05-06T02:17:10.165Z,98801.52
2023-05-06T02:19:37.329Z,98802.73
2023-05-06T02:22:05.041Z,98803.06
2023-05-06T02:24:32.333Z,98799.41
2023-05-06T02:26:59.502Z,98795.77
2023-05-06T02:29:27.325Z,98788.28
2023-05-06T02:31:54.574Z,98795.94
2023-05-06T02:34:22.170Z,98798.19
2023-05-06T02:36:49.587Z,98800.63
2023-05-06T02:39:16.681Z,98805.14
2023-05-06T02:41:43.863Z,98808.79
2023-05-06T02:44:12.774Z,98810.53
2023-05-06T02:46:39.844Z,98800.62
2023-05-06T02:49:06.978Z,98799.07
2023-05-06T02:51:34.650Z,98792.81
2023-05-06T02:54:01.949Z,98794.20
2023-05-06T02:56:29.379Z,98789.16
2023-05-06T02:58:56.892Z,98785.70
2023-05-06T03:01:24.250Z,98776.82
2023-05-06T03:03:51.567Z,98771.61
2023-05-06T03:06:18.934Z,98778.40
2023-05-06T03:08:46.778Z,98781.88
2023-05-06T03:11:14.376Z,98776.66
2023-05-06T03:13:41.958Z,98768.48
2023-05-06T03:16:13.763Z,98768.99
2023-05-06T03:18:42.617Z,98776.11
2023-05-06T03:21:10.896Z,98776.06
2023-05-06T03:23:38.685Z,98780.08
2023-05-06T03:26:06.291Z,98787.70
2023-05-06T03:28:36.600Z,98799.91
2023-05-06T03:31:04.507Z,98810.37
2023-05-06T03:33:33.499Z,98809.67
2023-05-06T03:36:01.041Z,98792.63
2023-05-06T03:38:28.272Z,98774.50
2023-05-06T03:40:59.517Z,98764.73
2023-05-06T03:43:27.309Z,98760.71
2023-05-06T03:45:57.331Z,98753.73
2023-05-06T03:48:25.325Z,98747.09
2023-05-06T03:50:53.526Z,98735.05
2023-05-06T03:53:21.415Z,98731.89
2023-05-06T03:55:48.807Z,98728.90
2023-05-06T03:58:16.683Z,98729.91
2023-05-06T04:00:45.351Z,98735.97
2023-05-06T04:03:12.694Z,98742.55
2023-05-06T04:05:46.265Z,98756.42
2023-05-06T04:08:16.650Z,98760.42
2023-05-06T04:10:44.176Z,98763.38
2023-05-06T04:13:17.873Z,98774.18
2023-05-06T04:15:45.353Z,98787.93
2023-05-06T04:18:18.955Z,98793.31
2023-05-06T04:20:51.470Z,98796.27
2023-05-06T04:23:18.681Z,98790.04
2023-05-06T04:25:48.368Z,98783.45
2023-05-06T04:28:17.320Z,98781.30
2023-05-06T04:30:46.218Z,98786.41
2023-05-06T04:33:14.671Z,98790.03
2023-05-06T04:35:52.668Z,98794.89
2023-05-06T04:38:25.289Z,98790.55
2023-05-06T04:40:52.530Z,98776.50
2023-05-06T04:43:19.904Z,98774.92
2023-05-06T04:45:50.739Z,98771.59
2023-05-06T04:48:21.985Z,98764.09
2023-05-06T04:50:50.575Z,98767.56
2023-05-06T04:53:18.398Z,98772.93
2023-05-06T04:55:45.808Z,98772.08
2023-05-06T04:58:16.415Z,98767.44
2023-05-06T05:00:45.425Z,98765.16
2023-05-06T05:03:13.090Z,98765.27
2023-05-06T05:05:40.670Z,98759.33
2023-05-06T05:08:13.933Z,98754.48
2023-05-06T05:10:42.932Z,98753.36
2023-05-06T05:13:13.660Z,98756.81
2023-05-06T05:15:41.439Z,98757.34
2023-05-06T05:18:08.660Z,98762.20
2023-05-06T05:20:35.979Z,98768.02
2023-05-06T05:23:04.666Z,98768.79
2023-05-06T05:25:32.370Z,98766.89
2023-05-06T05:27:59.644Z,98763.20
2023-05-06T05:30:27.608Z,98763.27
2023-05-06T05:32:55.001Z,98765.11
2023-05-06T05:35:22.497Z,98759.87
2023-05-06T05:37:50.091Z,98755.10
2023-05-06T05:40:17.631Z,98754.73
2023-05-06T05:42:45.833Z,98761.38
2023-05-06T05:45:21.104Z,98768.52
2023-05-06T05:47:48.775Z,98765.87
2023-05-06T05:50:16.455Z,98768.95
2023-05-06T05:52:44.149Z,98773.59
2023-05-06T05:55:12.630Z,98776.95
2023-05-06T05:57:39.876Z,98775.17
2023-05-06T06:00:10.555Z,98771.42
2023-05-06T06:02:44.625Z,98770.72
2023-05-06T06:05:13.085Z,98764.11
2023-05-06T06:07:42.786Z,98759.77
2023-05-06T06:10:12.928Z,98749.43
2023-05-06T06:12:41.206Z,98749.90
2023-05-06T06:15:10.166Z,98747.14
2023-05-06T06:17:38.210Z,98746.36
2023-05-06T06:20:07.217Z,98745.77
2023-05-06T06:22:37.420Z,98740.09
2023-05-06T06:25:05.866Z,98742.25
2023-05-06T06:27:36.887Z,98748.69
2023-05-06T06:30:05.323Z,98751.03
2023-05-06T06:32:34.928Z,98758.70
2023-05-06T06:35:02.706Z,98762.27
2023-05-06T06:37:30.067Z,98764.73
2023-05-06T06:39:57.447Z,98765.89
2023-05-06T06:42:25.261Z,98775.11
2023-05-06T06:45:22.994Z,98779.09
2023-05-06T06:47:50.699Z,98776.52
2023-05-06T06:50:18.124Z,98772.96
2023-05-06T06:52:45.685Z,98769.22
2023-05-06T06:55:13.329Z,98768.90
2023-05-06T06:57:40.956Z,98763.92
2023-05-06T07:00:08.786Z,98770.64
2023-05-06T07:02:36.814Z,98769.37
2023-05-06T07:05:04.361Z,98773.25
2023-05-06T07:07:31.547Z,98777.33
2023-05-06T07:09:59.394Z,98771.59
2023-05-06T07:12:28.060Z,98762.69
2023-05-06T07:14:55.384Z,98759.88
2023-05-06T07:17:23.469Z,98759.61
2023-05-06T07:19:50.669Z,98759.29
2023-05-06T07:22:17.795Z,98757.48
2023-05-06T07:24:45.461Z,98763.30
2023-05-06T07:27:12.651Z,98762.44
2023-05-06T07:29:41.333Z,98767.13
2023-05-06T07:32:09.100Z,98774.63
2023-05-06T07:34:36.822Z,98772.50
2023-05-06T07:37:04.307Z,98771.16
2023-05-06T07:39:32.138Z,98764.39
2023-05-06T07:41:59.326Z,98756.71
2023-05-06T07:44:26.770Z,98756.48
2023-05-06T07:46:54.470Z,98757.50
2023-05-06T07:49:22.089Z,98760.69
2023-05-06T07:51:49.304Z,98771.16
2023-05-06T07:54:17.338Z,98765.49
2023-05-06T07:56:45.088Z,98765.90
2023-05-06T07:59:12.619Z,98771.30
2023-05-06T08:01:40.534Z,98781.04
2023-05-06T08:04:08.335Z,98787.60
2023-05-06T08:06:36.885Z,98790.35
2023-05-06T08:09:04.552Z,98786.88
2023-05-06T08:11:32.215Z,98786.05
2023-05-06T08:13:59.416Z,98783.30
2023-05-06T08:16:27.140Z,98777.24
2023-05-06T08:18:54.608Z,98771.24
2023-05-06T08:21:21.895Z,98769.24
2023-05-06T08:23:49.683Z,98768.73
2023-05-06T08:26:17.786Z,98769.09
2023-05-06T08:28:45.320Z,98766.89
2023-05-06T08:31:12.891Z,98766.39
2023-05-06T08:33:41.469Z,98764.10
2023-05-06T08:36:08.736Z,98763.34
2023-05-06T08:38:37.114Z,98760.88
2023-05-06T08:41:12.393Z,98759.52
2023-05-06T08:43:44.298Z,98754.26
2023-05-06T08:46:12.094Z,98757.13
2023-05-06T08:48:39.964Z,98751.83
2023-05-06T08:51:08.162Z,98755.11
2023-05-06T08:53:36.140Z,98758.55
2023-05-06T08:56:08.211Z,98752.31
2023-05-06T08:58:39.278Z,98750.05
2023-05-06T09:01:08.880Z,98742.95
2023-05-06T09:03:36.196Z,98744.91
2023-05-06T09:06:04.244Z,98744.42
2023-05-06T09:08:32.317Z,98746.38
2023-05-06T09:10:59.517Z,98758.05
2023-05-06T09:13:27.073Z,98764.48
2023-05-06T09:15:55.095Z,98765.70
2023-05-06T09:18:22.819Z,98768.66
2023-05-06T09:20:52.149Z,98771.09
2023-05-06T09:23:22.000Z,98779.25
2023-05-06T09:25:50.712Z,98779.60
2023-05-06T09:28:18.190Z,98777.00
2023-05-06T09:30:47.310Z,98768.13
2023-05-06T09:33:14.484Z,98761.52
2023-05-06T09:35:43.588Z,98761.83
2023-05-06T09:38:11.060Z,98765.47
2023-05-06T09:40:39.083Z,98770.84
2023-05-06T09:43:09.742Z,98770.48
2023-05-06T09:45:38.989Z,98770.48
2023-05-06T09:48:08.723Z,98769.09
2023-05-06T09:50:40.929Z,98769.27
2023-05-06T09:53:14.516Z,98769.14
2023-05-06T09:55:49.884Z,98772.63
2023-05-06T09:58:17.746Z,98777.86
2023-05-06T10:00:49.067Z,98775.77
2023-05-06T10:03:24.450Z,98774.20
2023-05-06T10:05:53.948Z,98772.43
2023-05-06T10:08:23.301Z,98765.45
2023-05-06T10:10:50.878Z,98764.09
2023-05-06T10:13:19.799Z,98767.94
2023-05-06T10:15:50.223Z,98767.90
2023-05-06T10:18:19.620Z,98765.15
2023-05-06T10:20:48.969Z,98760.27
2023-05-06T10:23:16.474Z,98757.13
2023-05-06T10:25:46.394Z,98752.78
2023-05-06T10:28:19.680Z,98752.61
2023-05-06T10:31:03.790Z,98748.47
2023-05-06T10:33:31.624Z,98756.10
2023-05-06T10:36:26.074Z,98758.35
2023-05-06T10:38:59.804Z,98758.05
2023-05-06T10:41:39.208Z,98757.70
2023-05-06T10:44:09.568Z,98753.88
2023-05-06T10:46:57.577Z,98751.95
2023-05-06T10:49:25.088Z,98750.73
2023-05-06T10:52:15.105Z,98750.21
2023-05-06T10:54:50.848Z,98748.65
2023-05-06T10:57:20.539Z,98746.23
2023-05-06T10:59:48.727Z,98742.91
2023-05-06T11:02:20.021Z,98741.87
2023-05-06T11:04:53.020Z,98738.06
2023-05-06T11:07:23.065Z,98739.27
2023-05-06T11:10:05.918Z,98735.06
2023-05-06T11:12:48.642Z,98738.52
2023-05-06T11:15:40.394Z,98738.14
2023-05-06T11:18:30.466Z,98737.44
2023-05-06T11:21:03.671Z,98739.19
2023-05-06T11:23:46.475Z,98747.21
2023-05-06T11:26:14.253Z,98751.73
2023-05-06T11:28:46.589Z,98751.23
2023-05-06T11:31:15.542Z,98749.15
2023-05-06T11:33:50.843Z,98752.66
2023-05-06T11:36:20.589Z,98754.05
2023-05-06T11:38:54.142Z,98752.32
2023-05-06T11:41:23.092Z,98756.48
2023-05-06T11:43:52.633Z,98759.95
2023-05-06T11:46:21.615Z,98762.22
2023-05-06T11:48:52.355Z,98767.95
2023-05-06T11:51:23.645Z,98768.11
2023-05-06T11:53:52.797Z,98768.82
2023-05-06T11:56:24.417Z,98767.40
2023-05-06T11:58:52.117Z,98770.70
2023-05-06T12:01:19.554Z,98774.52
2023-05-06T12:03:47.381Z,98770.67
2023-05-06T12:06:16.144Z,98771.69
2023-05-06T12:08:43.388Z,98775.52
2023-05-06T12:11:11.678Z,98781.44
2023-05-06T12:13:40.250Z,98787.19
2023-05-06T12:16:08.003Z,98793.83
2023-05-06T12:18:35.818Z,98793.66
2023-05-06T12:21:03.820Z,98795.23
2023-05-06T12:23:31.447Z,98803.77
2023-05-06T12:26:06.596Z,98801.31
2023-05-06T12:28:36.319Z,98802.00
2023-05-06T12:31:23.548Z,98800.94
2023-05-06T12:33:51.311Z,98804.08
2023-05-06T12:36:19.344Z,98804.08
2023-05-06T12:38:57.677Z,98799.70
2023-05-06T12:41:36.850Z,98800.73
2023-05-06T12:44:34.309Z,98807.52
2023-05-06T12:47:24.482Z,98810.67
2023-05-06T12:49:53.357Z,98810.00
2023-05-06T12:52:25.562Z,98811.39
2023-05-06T12:54:53.317Z,98811.55
2023-05-06T12:57:21.415Z,98813.12
2023-05-06T12:59:49.513Z,98816.95
2023-05-06T13:02:17.132Z,98819.23
2023-05-06T13:04:46.526Z,98818.54
2023-05-06T13:07:14.050Z,98815.21
2023-05-06T13:09:44.773Z,98812.09
2023-05-06T13:12:13.066Z,98809.85
2023-05-06T13:14:40.548Z,98814.89
2023-05-06T13:17:08.389Z,98812.27
2023-05-06T13:19:37.025Z,98817.32
2023-05-06T13:22:04.437Z,98823.77
2023-05-06T13:24:32.061Z,98826.38
2023-05-06T13:27:01.106Z,98827.95
2023-05-06T13:29:32.493Z,98829.00
2023-05-06T13:32:00.464Z,98829.70
2023-05-06T13:34:31.297Z,98827.77
2023-05-06T13:36:59.343Z,98829.68
2023-05-06T13:39:28.272Z,98832.29
2023-05-06T13:41:56.023Z,98828.98
2023-05-06T13:44:29.440Z,98833.16
2023-05-06T13:46:59.661Z,98835.95
2023-05-06T13:49:27.033Z,98838.21
2023-05-06T13:51:54.238Z,98835.09
2023-05-06T13:54:21.561Z,98835.44
2023-05-06T13:56:48.903Z,98838.23
2023-05-06T13:59:16.263Z,98845.53
2023-05-06T14:01:45.521Z,98843.79
2023-05-06T14:04:14.966Z,98847.61
2023-05-06T14:06:42.364Z,98844.83
2023-05-06T14:09:12.193Z,98841.52
2023-05-06T14:11:39.465Z,98844.13
2023-05-06T14:14:07.445Z,98839.94
2023-05-06T14:16:35.056Z,98840.81
2023-05-06T14:19:04.376Z,98846.04
2023-05-06T14:21:31.809Z,98843.08
2023-05-06T14:23:59.672Z,98841.50
2023-05-06T14:26:27.122Z,98845.16
2023-05-06T14:28:54.844Z,98846.91
2023-05-06T14:31:23.014Z,98848.81
2023-05-06T14:33:50.249Z,98847.24
2023-05-06T14:36:18.880Z,98853.86
2023-05-06T14:38:46.722Z,98856.47
2023-05-06T14:41:14.153Z,98854.02
2023-05-06T14:43:41.642Z,98855.08
2023-05-06T14:46:11.003Z,98855.94
2023-05-06T14:48:38.252Z,98858.20
2023-05-06T14:51:05.937Z,98855.95
2023-05-06T14:53:34.088Z,98860.13
2023-05-06T14:56:01.477Z,98860.82
2023-05-06T14:58:29.003Z,98863.59
2023-05-06T15:00:56.808Z,98859.08
2023-05-06T15:03:23.988Z,98863.42
2023-05-06T15:05:51.283Z,98862.56
2023-05-06T15:08:19.050Z,98866.04
2023-05-06T15:10:48.163Z,98869.16
2023-05-06T15:13:15.593Z,98866.02
2023-05-06T15:15:43.462Z,98867.42
2023-05-06T15:18:12.761Z,98873.52
2023-05-06T15:20:40.240Z,98874.91
2023-05-06T15:23:08.417Z,98874.55
2023-05-06T15:25:36.700Z,98875.59
2023-05-06T15:28:06.728Z,98879.42
2023-05-06T15:30:36.723Z,98878.88
2023-05-06T15:33:04.833Z,98879.58
2023-05-06T15:35:32.196Z,98886.69
2023-05-06T15:38:00.093Z,98888.77
2023-05-06T15:40:27.473Z,98885.11
2023-05-06T15:42:55.448Z,98889.44
2023-05-06T15:45:25.424Z,98885.44
2023-05-06T15:47:53.783Z,98885.42
2023-05-06T15:50:32.749Z,98887.33
2023-05-06T15:53:01.733Z,98886.79
2023-05-06T15:55:29.397Z,98883.67
2023-05-06T15:57:59.181Z,98885.06
2023-05-06T16:00:28.049Z,98887.87
2023-05-06T16:02:55.364Z,98886.48
2023-05-06T16:05:22.874Z,98886.66
2023-05-06T16:07:50.318Z,98888.20
2023-05-06T16:10:17.483Z,98885.42
2023-05-06T16:12:45.554Z,98883.34
2023-05-06T16:15:13.197Z,98878.66
2023-05-06T16:17:40.306Z,98884.39
2023-05-06T16:20:11.172Z,98883.52
2023-05-06T16:22:39.958Z,98886.63
2023-05-06T16:25:07.586Z,98885.42
2023-05-06T16:27:35.204Z,98884.70
2023-05-06T16:30:03.438Z,98883.80
2023-05-06T16:32:30.864Z,98883.45
2023-05-06T16:34:58.993Z,98880.61
2023-05-06T16:37:28.079Z,98887.17
2023-05-06T16:39:55.349Z,98888.02
2023-05-06T16:42:22.525Z,98887.14
2023-05-06T16:44:50.978Z,98890.23
2023-05-06T16:47:22.847Z,98897.14
2023-05-06T16:49:50.375Z,98904.08
2023-05-06T16:52:18.353Z,98908.77
2023-05-06T16:54:45.805Z,98911.86
2023-05-06T16:57:13.310Z,98910.98
2023-05-06T16:59:40.767Z,98909.91
2023-05-06T17:02:08.324Z,98908.83
2023-05-06T17:04:51.585Z,98912.08
2023-05-06T17:07:44.809Z,98915.86
2023-05-06T17:10:44.396Z,98912.70
2023-05-06T17:13:37.028Z,98915.29
2023-05-06T17:16:27.101Z,98916.66
2023-05-06T17:19:24.127Z,98918.17
2023-05-06T17:22:13.570Z,98919.12
2023-05-06T17:25:03.201Z,98921.55
2023-05-06T17:27:51.292Z,98926.60
2023-05-06T17:30:38.711Z,98928.69
2023-05-06T17:33:27.152Z,98930.25
2023-05-06T17:36:22.433Z,98934.91
2023-05-06T17:39:27.424Z,98935.35
2023-05-06T17:42:17.121Z,98935.95
2023-05-06T17:44:55.005Z,98936.45
2023-05-06T17:47:29.661Z,98941.80
2023-05-06T17:49:57.623Z,98942.98
2023-05-06T17:52:26.058Z,98941.91
2023-05-06T17:55:10.775Z,98946.80
2023-05-06T17:57:41.172Z,98950.09
2023-05-06T18:00:08.959Z,98956.45
2023-05-06T18:02:39.209Z,98956.22
2023-05-06T18:05:07.982Z,98959.67
2023-05-06T18:07:35.690Z,98962.85
2023-05-06T18:10:02.978Z,98965.70
2023-05-06T18:12:33.229Z,98961.92
2023-05-06T18:15:00.895Z,98966.08
2023-05-06T18:17:28.132Z,98964.30
2023-05-06T18:19:55.583Z,98962.50
2023-05-06T18:22:22.740Z,98964.34
2023-05-06T18:24:54.599Z,98969.19
2023-05-06T18:27:22.379Z,98974.27
2023-05-06T18:29:49.638Z,98980.33
2023-05-06T18:32:17.906Z,98979.95
2023-05-06T18:34:45.596Z,98984.35
2023-05-06T18:37:13.422Z,98989.56
2023-05-06T18:39:41.549Z,98990.64
2023-05-06T18:42:10.146Z,98992.15
2023-05-06T18:44:37.666Z,98990.60
2023-05-06T18:47:05.484Z,98995.06
2023-05-06T18:49:33.098Z,99008.73
2023-05-06T18:52:01.935Z,99008.59
2023-05-06T18:54:31.858Z,99007.02
2023-05-06T18:57:00.681Z,99006.81
2023-05-06T18:59:28.244Z,99010.98
2023-05-06T19:02:26.742Z,99009.63
2023-05-06T19:04:55.093Z,99013.86
2023-05-06T19:07:22.249Z,99019.64
2023-05-06T19:09:49.759Z,99025.64
2023-05-06T19:12:17.919Z,99028.05
2023-05-06T19:14:45.088Z,99030.88
2023-05-06T19:17:12.448Z,99032.87
2023-05-06T19:19:40.705Z,99033.27
2023-05-06T19:22:07.842Z,99033.13
2023-05-06T19:24:35.279Z,99031.02
2023-05-06T19:27:02.636Z,99032.23
2023-05-06T19:29:32.829Z,99032.63
2023-05-06T19:32:02.127Z,99037.20
2023-05-06T19:34:29.569Z,99038.09
2023-05-06T19:36:57.046Z,99036.11
2023-05-06T19:39:24.858Z,99038.22
2023-05-06T19:41:54.512Z,99035.77
2023-05-06T19:44:21.643Z,99035.45
2023-05-06T19:46:53.634Z,99035.98
2023-05-06T19:49:20.761Z,99035.60
2023-05-06T19:51:50.648Z,99035.36
2023-05-06T19:54:19.439Z,99034.17
2023-05-06T19:56:46.930Z,99036.56
2023-05-06T19:59:14.062Z,99038.19
2023-05-06T20:01:41.427Z,99037.55
2023-05-06T20:04:09.529Z,99041.63
2023-05-06T20:06:36.770Z,99040.19
2023-05-06T20:09:04.690Z,99041.81
2023-05-06T20:11:31.979Z,99044.35
2023-05-06T20:13:59.426Z,99045.01
2023-05-06T20:16:26.963Z,99046.27
2023-05-06T20:18:54.223Z,99049.85
2023-05-06T20:21:21.581Z,99044.83
2023-05-06T20:23:48.981Z,99045.55
2023-05-06T20:26:17.353Z,99048.21
2023-05-06T20:28:44.758Z,99053.64
2023-05-06T20:31:12.063Z,99055.54
2023-05-06T20:33:39.319Z,99055.20
2023-05-06T20:36:06.886Z,99059.47
2023-05-06T20:38:34.766Z,99064.11
2023-05-06T20:41:02.616Z,99064.04
2023-05-06T20:43:30.236Z,99064.53
2023-05-06T20:45:57.936Z,99066.05
2023-05-06T20:48:27.241Z,99064.22
2023-05-06T20:50:56.528Z,99065.58
2023-05-06T20:53:24.268Z,99067.39
2023-05-06T20:55:51.580Z,99066.77
2023-05-06T20:58:18.734Z,99062.11
2023-05-06T21:00:46.588Z,99061.66
2023-05-06T21:03:13.833Z,99060.99
2023-05-06T21:05:41.093Z,99059.59
2023-05-06T21:08:08.452Z,99062.88
2023-05-06T21:10:36.391Z,99065.55
2023-05-06T21:13:04.349Z,99064.77
2023-05-06T21:15:33.658Z,99065.33
2023-05-06T21:18:01.311Z,99066.98
2023-05-06T21:20:29.015Z,99065.86
2023-05-06T21:22:56.833Z,99064.98
2023-05-06T21:25:24.107Z,99063.70
2023-05-06T21:27:51.283Z,99066.95
2023-05-06T21:30:18.830Z,99069.61
2023-05-06T21:32:46.150Z,99069.02
2023-05-06T21:35:13.479Z,99068.62
2023-05-06T21:37:40.996Z,99067.40
2023-05-06T21:40:09.180Z,99067.03
2023-05-06T21:42:36.298Z,99070.42
2023-05-06T21:46:02.314Z,99068.14
2023-05-06T21:48:30.157Z,99067.39
2023-05-06T21:50:58.129Z,99070.67
2023-05-06T21:53:25.551Z,99071.19
2023-05-06T21:55:53.051Z,99067.39
2023-05-06T21:58:20.257Z,99073.21
2023-05-06T22:00:47.633Z,99073.36
2023-05-06T22:03:15.317Z,99074.70
2023-05-06T22:05:42.512Z,99075.67
2023-05-06T22:08:10.212Z,99076.07
2023-05-06T22:10:37.690Z,99079.98
2023-05-06T22:13:05.028Z,99078.58
2023-05-06T22:15:32.411Z,99081.76
2023-05-06T22:17:59.997Z,99082.27
2023-05-06T22:20:27.976Z,99082.99
2023-05-06T22:22:55.559Z,99081.83
2023-05-06T22:25:23.079Z,99083.19
2023-05-06T22:27:50.482Z,99086.89
2023-05-06T22:30:17.898Z,99090.10
2023-05-06T22:32:45.598Z,99090.56
2023-05-06T22:35:15.344Z,99092.27
2023-05-06T22:37:42.601Z,99092.08
2023-05-06T22:40:10.738Z,99092.27
2023-05-06T22:42:38.278Z,99092.69
2023-05-06T22:45:06.819Z,99094.63
2023-05-06T22:47:33.965Z,99095.40
2023-05-06T22:50:02.517Z,99093.80
2023-05-06T22:52:29.794Z,99094.08
2023-05-06T22:54:56.927Z,99092.11
2023-05-06T22:57:24.900Z,99092.42
2023-05-06T22:59:52.460Z,99096.65
2023-05-06T23:02:19.609Z,99098.41
2023-05-06T23:04:46.924Z,99099.23
2023-05-06T23:07:14.715Z,99099.69
2023-05-06T23:09:41.813Z,99102.69
2023-05-06T23:12:09.012Z,99104.73
2023-05-06T23:14:36.748Z,99109.77
2023-05-06T23:17:04.024Z,99114.57
2023-05-06T23:19:31.150Z,99114.66
2023-05-06T23:21:58.772Z,99116.45
2023-05-06T23:24:26.185Z,99119.08
2023-05-06T23:26:53.986Z,99120.70
2023-05-06T23:29:21.153Z,99119.02
2023-05-06T23:31:48.373Z,99121.66
2023-05-06T23:34:15.518Z,99122.96
2023-05-06T23:36:42.973Z,99122.45
2023-05-06T23:39:11.687Z,99126.33
2023-05-06T23:41:39.041Z,99125.89
2023-05-06T23:44:06.465Z,99124.22
2023-05-06T23:46:33.889Z,99121.84
2023-05-06T23:49:01.015Z,99120.36
2023-05-06T23:51:28.408Z,99122.73
2023-05-06T23:53:55.937Z,99124.84
2023-05-06T23:56:23.382Z,99123.00
2023-05-06T23:58:50.521Z,99119.11
